createdAt,value
2022-12-19T00:03:57.538Z,25.27
2022-12-19T00:09:01.414Z,25.90
2022-12-19T00:14:06.830Z,24.77
2022-12-19T00:19:11.562Z,23.27
2022-12-19T00:24:21.509Z,26.65
2022-12-19T00:29:26.730Z,24.67
2022-12-19T00:34:30.238Z,24.98
2022-12-19T00:39:33.697Z,25.05
2022-12-19T00:44:38.550Z,24.70
2022-12-19T00:49:42.164Z,24.58
2022-12-19T00:54:47.646Z,24.60
2022-12-19T00:59:52.634Z,23.92
2022-12-19T01:04:56.086Z,23.77
2022-12-19T01:09:59.569Z,25.50
2022-12-19T01:15:07.401Z,24.25
2022-12-19T01:20:12.962Z,22.00
2022-12-19T01:25:16.706Z,23.40
2022-12-19T01:30:21.630Z,22.52
2022-12-19T01:35:26.922Z,23.90
2022-12-19T01:40:30.496Z,25.48
2022-12-19T01:45:42.170Z,24.75
2022-12-19T01:51:00.652Z,23.08
2022-12-19T01:56:10.913Z,24.67
2022-12-19T02:01:17.368Z,24.95
2022-12-19T02:06:21.339Z,25.13
2022-12-19T02:11:26.097Z,25.13
2022-12-19T02:16:43.118Z,26.17
2022-12-19T02:21:56.676Z,25.30
2022-12-19T02:27:08.095Z,24.80
2022-12-19T02:32:20.159Z,27.20
2022-12-19T02:37:30.773Z,25.77
2022-12-19T02:42:41.999Z,27.85
2022-12-19T02:47:47.949Z,25.00
2022-12-19T02:52:51.490Z,25.38
2022-12-19T02:58:23.578Z,23.73
2022-12-19T03:03:38.071Z,23.15
2022-12-19T03:08:48.316Z,24.15
2022-12-19T03:13:56.837Z,18.10
2022-12-19T03:19:02.653Z,23.65
2022-12-19T03:24:08.291Z,24.75
2022-12-19T03:29:17.068Z,24.08
2022-12-19T03:34:27.933Z,25.33
2022-12-19T03:44:40.211Z,23.60
2022-12-19T03:49:46.320Z,24.25
2022-12-19T03:54:55.954Z,24.65
2022-12-19T04:00:04.343Z,23.92
2022-12-19T04:05:21.036Z,22.73
2022-12-19T04:10:27.657Z,23.63
2022-12-19T04:15:40.025Z,24.23
2022-12-19T04:20:51.681Z,22.10
2022-12-19T04:26:01.573Z,20.98
2022-12-19T04:31:06.668Z,18.30
2022-12-19T04:36:12.775Z,19.27
2022-12-19T04:41:16.340Z,17.65
2022-12-19T04:46:19.865Z,17.13
2022-12-19T04:51:24.862Z,18.75
2022-12-19T04:56:28.381Z,17.30
2022-12-19T05:01:32.116Z,17.45
2022-12-19T05:06:37.133Z,16.70
2022-12-19T05:11:40.648Z,16.60
2022-12-19T05:16:44.160Z,16.90
2022-12-19T05:21:51.382Z,16.48
2022-12-19T05:26:54.987Z,17.33
2022-12-19T05:31:58.469Z,18.17
2022-12-19T05:37:04.070Z,18.20
2022-12-19T05:42:12.125Z,17.00
2022-12-19T05:47:16.252Z,16.13
2022-12-19T05:52:21.407Z,16.73
2022-12-19T05:57:25.734Z,13.95
2022-12-19T06:02:33.429Z,14.50
2022-12-19T06:07:38.749Z,14.70
2022-12-19T06:12:42.326Z,13.93
2022-12-19T06:17:45.779Z,14.25
2022-12-19T06:22:50.659Z,15.88
2022-12-19T06:27:54.148Z,14.50
2022-12-19T06:32:57.624Z,16.92
2022-12-19T06:38:02.444Z,15.85
2022-12-19T06:43:06.059Z,16.38
2022-12-19T06:48:09.554Z,15.48
2022-12-19T06:53:14.493Z,15.15
2022-12-19T06:58:24.011Z,14.02
2022-12-19T07:03:37.228Z,13.23
2022-12-19T07:08:42.233Z,13.10
2022-12-19T07:13:45.795Z,11.95
2022-12-19T07:18:49.536Z,13.40
2022-12-19T07:23:55.356Z,17.65
2022-12-19T07:28:59.298Z,12.82
2022-12-19T07:34:02.849Z,12.77
2022-12-19T07:39:07.787Z,12.30
2022-12-19T07:44:13.571Z,11.93
2022-12-19T07:49:22.428Z,12.57
2022-12-19T07:54:27.930Z,15.82
2022-12-19T07:59:35.737Z,11.95
2022-12-19T08:04:42.463Z,11.07
2022-12-19T08:09:47.627Z,10.27
2022-12-19T08:14:56.842Z,10.95
2022-12-19T08:20:00.880Z,10.88
2022-12-19T08:25:07.591Z,9.52
2022-12-19T08:30:14.359Z,10.13
2022-12-19T08:35:18.548Z,9.68
2022-12-19T08:40:24.462Z,9.68
2022-12-19T08:45:27.925Z,9.13
2022-12-19T08:50:31.731Z,9.60
2022-12-19T08:55:38.374Z,10.18
2022-12-19T09:00:42.150Z,9.10
2022-12-19T09:06:00.740Z,10.65
2022-12-19T09:11:13.122Z,9.55
2022-12-19T09:16:19.725Z,8.98
2022-12-19T09:21:25.337Z,9.27
2022-12-19T09:26:33.616Z,9.55
2022-12-19T09:31:37.677Z,8.80
2022-12-19T09:36:41.292Z,9.23
2022-12-19T09:42:17.952Z,9.60
2022-12-19T09:47:25.819Z,9.77
2022-12-19T09:52:33.967Z,12.65
2022-12-19T09:57:45.541Z,9.75
2022-12-19T10:02:54.917Z,8.48
2022-12-19T10:08:08.580Z,8.85
2022-12-19T10:13:29.813Z,10.65
2022-12-19T10:18:44.516Z,9.68
2022-12-19T10:24:11.124Z,9.60
2022-12-19T10:29:54.874Z,9.40
2022-12-19T10:34:59.035Z,9.98
2022-12-19T10:40:14.655Z,9.68
2022-12-19T10:45:38.946Z,13.63
2022-12-19T10:50:44.619Z,9.25
2022-12-19T10:55:50.302Z,9.15
2022-12-19T11:01:06.555Z,9.20
2022-12-19T11:06:56.634Z,8.93
2022-12-19T11:16:30.265Z,9.05
2022-12-19T11:24:24.858Z,8.50
2022-12-19T11:30:09.509Z,8.93
2022-12-19T11:30:59.585Z,8.82
2022-12-19T11:34:03.289Z,8.82
2022-12-19T11:39:17.746Z,7.43
2022-12-19T11:44:29.392Z,8.30
2022-12-19T11:49:39.780Z,7.55
2022-12-19T11:54:56.330Z,10.25
2022-12-19T12:00:04.864Z,7.95
2022-12-19T12:05:37.759Z,9.13
2022-12-19T12:16:57.709Z,7.97
2022-12-19T12:30:13.775Z,7.75
2022-12-19T12:31:17.816Z,8.93
2022-12-19T12:31:53.908Z,8.82
2022-12-19T12:35:30.673Z,8.65
2022-12-19T12:38:49.045Z,26.80
2022-12-19T12:44:06.090Z,7.18
2022-12-19T12:49:25.857Z,6.68
2022-12-19T12:54:35.973Z,7.05
2022-12-19T12:59:39.774Z,6.25
2022-12-19T13:04:55.922Z,6.55
2022-12-19T13:10:20.157Z,6.55
2022-12-19T13:15:43.097Z,6.82
2022-12-19T13:20:48.449Z,5.85
2022-12-19T13:25:55.241Z,6.07
2022-12-19T13:31:22.937Z,5.97
2022-12-19T13:39:51.443Z,6.25
2022-12-19T13:42:33.787Z,6.75
2022-12-19T13:47:41.953Z,6.07
2022-12-19T13:52:49.903Z,5.60
2022-12-19T13:57:56.339Z,5.80
2022-12-19T14:03:01.691Z,6.15
2022-12-19T14:08:07.957Z,6.47
2022-12-19T14:13:45.804Z,6.53
2022-12-19T14:19:00.868Z,6.53
2022-12-19T14:24:17.821Z,6.43
2022-12-19T14:30:14.847Z,6.07
2022-12-19T14:36:08.811Z,6.65
2022-12-19T14:40:25.913Z,5.30
2022-12-19T14:52:34.907Z,6.07
2022-12-19T14:54:18.686Z,7.97
2022-12-19T14:56:59.172Z,5.53
2022-12-19T15:02:17.902Z,5.80
2022-12-19T15:07:36.517Z,5.30
2022-12-19T15:14:52.914Z,5.90
2022-12-19T15:18:42.802Z,5.70
2022-12-19T15:23:46.449Z,21.80
2022-12-19T15:28:52.156Z,6.25
2022-12-19T15:39:22.248Z,5.95
2022-12-19T15:44:30.073Z,6.30
2022-12-19T15:49:36.351Z,5.45
2022-12-19T15:54:48.793Z,5.40
2022-12-19T15:59:54.265Z,4.75
2022-12-19T16:05:03.872Z,5.32
2022-12-19T16:10:12.616Z,3.37
2022-12-19T16:15:23.178Z,4.43
2022-12-19T16:20:30.380Z,4.97
2022-12-19T16:25:38.441Z,4.60
2022-12-19T16:30:44.453Z,4.20
2022-12-19T16:36:07.018Z,4.82
2022-12-19T16:41:17.323Z,4.05
2022-12-19T16:51:29.235Z,4.03
2022-12-19T16:56:36.869Z,4.13
2022-12-19T17:01:40.925Z,3.72
2022-12-19T17:06:46.788Z,4.10
2022-12-19T17:11:53.354Z,4.20
2022-12-19T17:17:00.729Z,4.07
2022-12-19T17:22:12.727Z,3.72
2022-12-19T17:27:17.450Z,3.95
2022-12-19T17:32:24.305Z,4.15
2022-12-19T17:37:29.861Z,3.85
2022-12-19T17:42:37.510Z,3.47
2022-12-19T17:47:41.900Z,3.22
2022-12-19T17:52:46.902Z,3.92
2022-12-19T17:57:51.164Z,4.45
2022-12-19T18:02:56.249Z,6.82
2022-12-19T18:08:01.392Z,4.03
2022-12-19T18:13:05.709Z,3.78
2022-12-19T18:18:13.958Z,3.83
2022-12-19T18:23:21.007Z,4.10
2022-12-19T18:28:24.841Z,3.80
2022-12-19T18:33:29.265Z,4.05
2022-12-19T18:38:34.319Z,3.67
2022-12-19T18:43:38.207Z,4.38
2022-12-19T18:48:44.286Z,3.63
2022-12-19T18:53:50.649Z,4.53
2022-12-19T18:58:55.096Z,3.95
2022-12-19T19:04:00.326Z,9.98
2022-12-19T19:09:07.948Z,3.00
2022-12-19T19:14:37.511Z,3.88
2022-12-19T19:19:41.335Z,3.85
2022-12-19T19:24:46.291Z,3.60
2022-12-19T19:29:50.264Z,3.53
2022-12-19T19:34:55.990Z,3.92
2022-12-19T19:40:01.091Z,3.40
2022-12-19T19:45:05.939Z,3.40
2022-12-19T19:50:12.157Z,3.60
2022-12-19T19:55:17.208Z,3.35
2022-12-19T20:00:22.172Z,3.90
2022-12-19T20:05:26.064Z,3.10
2022-12-19T20:10:31.195Z,3.63
2022-12-19T20:15:34.811Z,3.28
2022-12-19T20:20:38.485Z,5.38
2022-12-19T20:25:43.718Z,3.75
2022-12-19T20:30:47.613Z,3.92
2022-12-19T20:35:51.471Z,3.65
2022-12-19T20:40:56.409Z,3.50
2022-12-19T20:46:04.573Z,3.33
2022-12-19T20:51:09.453Z,3.72
2022-12-19T20:56:16.753Z,3.17
2022-12-19T21:01:22.334Z,3.45
2022-12-19T21:06:27.237Z,3.47
2022-12-19T21:11:32.551Z,3.20
2022-12-19T21:16:37.274Z,3.67
2022-12-19T21:21:41.104Z,3.47
2022-12-19T21:26:47.666Z,3.35
2022-12-19T21:31:51.723Z,3.15
2022-12-19T21:36:55.476Z,6.30
2022-12-19T21:42:00.462Z,3.20
2022-12-19T21:47:04.259Z,4.18
2022-12-19T21:52:07.923Z,3.65
2022-12-19T21:57:13.028Z,3.35
2022-12-19T22:02:17.066Z,3.95
2022-12-19T22:07:20.864Z,3.53
2022-12-19T22:12:26.060Z,3.60
2022-12-19T22:17:29.699Z,3.55
2022-12-19T22:22:33.301Z,3.40
2022-12-19T22:27:38.333Z,2.97
2022-12-19T22:32:42.071Z,3.47
2022-12-19T22:37:45.677Z,3.80
2022-12-19T22:42:50.593Z,3.55
2022-12-19T22:47:54.299Z,3.67
2022-12-19T22:52:57.842Z,3.90
2022-12-19T22:58:02.712Z,3.97
2022-12-19T23:03:06.365Z,3.28
2022-12-19T23:08:09.913Z,3.17
2022-12-19T23:13:14.749Z,3.17
2022-12-19T23:18:18.255Z,3.10
2022-12-19T23:23:21.755Z,3.70
2022-12-19T23:28:26.725Z,3.63
2022-12-19T23:33:30.244Z,3.60
2022-12-19T23:38:33.820Z,3.80
2022-12-19T23:43:39.392Z,3.05
2022-12-19T23:48:43.003Z,3.08
2022-12-19T23:53:47.193Z,3.30
2022-12-19T23:58:52.654Z,3.53
